createdAt,value
2023-03-11T00:00:30.485Z,3.00
2023-03-11T00:03:07.802Z,2.90
2023-03-11T00:05:43.927Z,2.90
2023-03-11T00:08:19.774Z,2.90
2023-03-11T00:10:58.704Z,2.90
2023-03-11T00:13:31.548Z,2.80
2023-03-11T00:16:03.893Z,2.80
2023-03-11T00:18:36.349Z,2.80
2023-03-11T00:21:16.408Z,2.70
2023-03-11T00:23:49.255Z,2.70
2023-03-11T00:26:21.799Z,2.60
2023-03-11T00:28:55.517Z,2.60
2023-03-11T00:31:27.703Z,2.60
2023-03-11T00:33:59.787Z,2.60
2023-03-11T00:36:36.405Z,2.60
2023-03-11T00:39:08.668Z,2.60
2023-03-11T00:41:41.920Z,2.60
2023-03-11T00:44:14.003Z,2.50
2023-03-11T00:46:46.036Z,2.50
2023-03-11T00:49:18.314Z,2.50
2023-03-11T00:51:50.402Z,2.50
2023-03-11T00:54:22.710Z,2.40
2023-03-11T00:56:54.714Z,2.40
2023-03-11T00:59:26.825Z,2.40
2023-03-11T01:01:58.788Z,2.40
2023-03-11T01:04:31.081Z,2.40
2023-03-11T01:07:03.627Z,2.40
2023-03-11T01:09:35.739Z,2.40
2023-03-11T01:12:07.883Z,2.30
2023-03-11T01:14:40.899Z,2.30
2023-03-11T01:17:12.959Z,2.30
2023-03-11T01:19:45.261Z,2.30
2023-03-11T01:22:17.712Z,2.20
2023-03-11T01:24:49.855Z,2.20
2023-03-11T01:27:22.102Z,2.20
2023-03-11T01:29:54.245Z,2.10
2023-03-11T01:32:26.422Z,2.10
2023-03-11T01:34:58.609Z,2.20
2023-03-11T01:37:30.708Z,2.10
2023-03-11T01:40:02.818Z,2.10
2023-03-11T01:42:36.427Z,2.10
2023-03-11T01:45:40.090Z,2.10
2023-03-11T01:48:31.810Z,2.00
2023-03-11T01:51:04.210Z,2.00
2023-03-11T01:53:37.266Z,2.00
2023-03-11T01:56:10.174Z,1.90
2023-03-11T01:58:46.409Z,1.90
2023-03-11T02:01:23.337Z,1.90
2023-03-11T02:03:56.646Z,1.90
2023-03-11T02:06:31.794Z,1.90
2023-03-11T02:09:03.910Z,1.90
2023-03-11T02:11:36.019Z,1.80
2023-03-11T02:14:09.413Z,1.80
2023-03-11T02:16:41.468Z,1.80
2023-03-11T02:19:45.262Z,1.80
2023-03-11T02:22:37.227Z,1.70
2023-03-11T02:25:45.175Z,1.70
2023-03-11T02:28:39.894Z,1.70
2023-03-11T02:31:14.111Z,1.60
2023-03-11T02:33:49.146Z,1.60
2023-03-11T02:36:34.473Z,1.60
2023-03-11T02:39:10.545Z,1.60
2023-03-11T02:41:46.750Z,1.50
2023-03-11T02:44:18.807Z,1.50
2023-03-11T02:46:51.391Z,1.40
2023-03-11T02:49:23.762Z,1.40
2023-03-11T02:51:55.868Z,1.30
2023-03-11T02:54:28.073Z,1.30
2023-03-11T02:57:00.257Z,1.20
2023-03-11T02:59:32.311Z,1.20
2023-03-11T03:02:04.654Z,1.10
2023-03-11T03:04:36.865Z,1.10
2023-03-11T03:07:09.249Z,1.00
2023-03-11T03:09:41.408Z,1.00
2023-03-11T03:12:13.538Z,0.90
2023-03-11T03:14:45.574Z,0.90
2023-03-11T03:17:18.433Z,0.80
2023-03-11T03:19:50.450Z,0.80
2023-03-11T03:22:25.134Z,0.80
2023-03-11T03:24:58.402Z,0.70
2023-03-11T03:27:30.645Z,0.80
2023-03-11T03:30:05.681Z,0.70
2023-03-11T03:32:38.835Z,0.70
2023-03-11T03:35:11.426Z,0.70
2023-03-11T03:37:43.579Z,0.60
2023-03-11T03:40:15.846Z,0.60
2023-03-11T03:42:48.221Z,0.60
2023-03-11T03:45:20.449Z,0.50
2023-03-11T03:47:52.431Z,0.50
2023-03-11T03:50:24.647Z,0.50
2023-03-11T03:52:56.932Z,0.40
2023-03-11T03:55:29.117Z,0.40
2023-03-11T03:58:01.084Z,0.40
2023-03-11T04:00:34.574Z,0.40
2023-03-11T04:03:07.193Z,0.40
2023-03-11T04:05:39.207Z,0.40
2023-03-11T04:08:12.203Z,0.40
2023-03-11T04:10:44.988Z,0.40
2023-03-11T04:13:27.228Z,0.40
2023-03-11T04:15:59.760Z,0.40
2023-03-11T04:18:35.044Z,0.40
2023-03-11T04:21:07.881Z,0.40
2023-03-11T04:23:40.042Z,0.40
2023-03-11T04:26:12.182Z,0.40
2023-03-11T04:28:44.413Z,0.40
2023-03-11T04:31:17.092Z,0.40
2023-03-11T04:33:49.457Z,0.40
2023-03-11T04:36:21.569Z,0.30
2023-03-11T04:38:56.654Z,0.30
2023-03-11T04:41:28.667Z,0.20
2023-03-11T04:44:00.836Z,0.20
2023-03-11T04:46:32.971Z,0.20
2023-03-11T04:49:05.023Z,0.10
2023-03-11T04:51:37.245Z,0.10
2023-03-11T04:54:09.933Z,0.10
2023-03-11T04:56:42.035Z,0.10
2023-03-11T04:59:14.079Z,0.10
2023-03-11T05:01:46.210Z,0.10
2023-03-11T05:04:18.263Z,0.10
2023-03-11T05:06:53.329Z,0.00
2023-03-11T05:09:26.363Z,0.00
2023-03-11T05:11:58.374Z,0.00
2023-03-11T05:14:30.321Z,0.00
2023-03-11T05:17:02.259Z,0.00
2023-03-11T05:19:35.132Z,0.00
2023-03-11T05:22:07.936Z,0.00
2023-03-11T05:24:40.175Z,0.00
2023-03-11T05:27:12.135Z,0.00
2023-03-11T05:29:45.262Z,0.00
2023-03-11T05:32:19.279Z,0.00
2023-03-11T05:34:52.376Z,0.00
2023-03-11T05:37:24.410Z,0.00
2023-03-11T05:40:07.091Z,0.00
2023-03-11T05:42:41.891Z,0.00
2023-03-11T05:45:14.633Z,0.00
2023-03-11T05:47:46.679Z,0.00
2023-03-11T05:50:18.971Z,0.00
2023-03-11T05:52:51.386Z,-0.10
2023-03-11T05:55:23.499Z,-0.10
2023-03-11T05:57:55.618Z,-0.10
2023-03-11T06:00:29.622Z,-0.10
2023-03-11T06:03:01.733Z,-0.10
2023-03-11T06:05:33.850Z,-0.20
2023-03-11T06:08:05.849Z,-0.10
2023-03-11T06:10:38.150Z,-0.10
2023-03-11T06:13:10.830Z,-0.10
2023-03-11T06:15:45.022Z,-0.10
2023-03-11T06:18:17.173Z,-0.10
2023-03-11T06:20:49.355Z,-0.10
2023-03-11T06:23:21.425Z,-0.10
2023-03-11T06:26:00.768Z,-0.10
2023-03-11T06:28:35.435Z,0.00
2023-03-11T06:31:09.823Z,0.00
2023-03-11T06:33:45.567Z,0.10
2023-03-11T06:36:19.894Z,0.30
2023-03-11T06:38:54.633Z,0.40
2023-03-11T06:41:26.838Z,0.50
2023-03-11T06:43:59.803Z,0.60
2023-03-11T06:46:32.490Z,0.70
2023-03-11T06:49:04.591Z,0.80
2023-03-11T06:51:36.683Z,1.10
2023-03-11T06:54:10.525Z,1.20
2023-03-11T06:56:42.680Z,1.40
2023-03-11T06:59:15.942Z,1.60
2023-03-11T07:01:48.060Z,2.00
2023-03-11T07:04:20.806Z,2.20
2023-03-11T07:06:52.893Z,2.30
2023-03-11T07:09:25.909Z,2.40
2023-03-11T07:11:59.110Z,2.60
2023-03-11T07:14:31.279Z,2.80
2023-03-11T07:17:03.476Z,3.20
2023-03-11T07:19:35.686Z,3.40
2023-03-11T07:22:07.855Z,3.70
2023-03-11T07:24:39.896Z,4.10
2023-03-11T07:27:11.962Z,4.60
2023-03-11T07:29:43.978Z,4.80
2023-03-11T07:32:16.529Z,4.80
2023-03-11T07:34:48.704Z,5.00
2023-03-11T07:37:20.813Z,5.50
2023-03-11T07:39:53.116Z,6.10
2023-03-11T07:42:25.257Z,6.40
2023-03-11T07:44:57.246Z,6.50
2023-03-11T07:47:29.896Z,6.90
2023-03-11T07:50:01.978Z,7.50
2023-03-11T07:52:34.207Z,8.10
2023-03-11T07:55:06.626Z,8.20
2023-03-11T07:57:39.201Z,8.40
2023-03-11T08:00:12.640Z,8.50
2023-03-11T08:02:45.598Z,8.60
2023-03-11T08:05:20.823Z,8.90
2023-03-11T08:07:53.084Z,8.60
2023-03-11T08:10:25.183Z,8.50
2023-03-11T08:12:57.232Z,8.50
2023-03-11T08:15:44.113Z,8.50
2023-03-11T08:18:17.065Z,8.30
2023-03-11T08:20:50.153Z,8.40
2023-03-11T08:23:22.130Z,8.40
2023-03-11T08:25:54.252Z,8.50
2023-03-11T08:28:26.342Z,8.40
2023-03-11T08:30:58.682Z,8.50
2023-03-11T08:33:31.439Z,8.60
2023-03-11T08:36:03.883Z,8.60
2023-03-11T08:38:36.678Z,8.40
2023-03-11T08:41:09.174Z,8.20
2023-03-11T08:43:42.295Z,8.00
2023-03-11T08:46:25.827Z,7.80
2023-03-11T08:49:03.290Z,7.80
2023-03-11T08:51:36.941Z,7.90
2023-03-11T08:54:09.148Z,7.90
2023-03-11T08:56:41.369Z,7.90
2023-03-11T08:59:13.944Z,7.80
2023-03-11T09:01:47.003Z,7.60
2023-03-11T09:04:19.168Z,7.40
2023-03-11T09:06:51.706Z,7.20
2023-03-11T09:09:24.015Z,7.10
2023-03-11T09:11:56.237Z,6.90
2023-03-11T09:14:28.503Z,6.70
2023-03-11T09:17:00.654Z,6.50
2023-03-11T09:19:32.659Z,6.40
2023-03-11T09:22:05.605Z,6.30
2023-03-11T09:24:37.794Z,6.00
2023-03-11T09:27:10.824Z,5.90
2023-03-11T09:29:44.129Z,5.70
2023-03-11T09:32:16.843Z,5.60
2023-03-11T09:34:49.130Z,5.50
2023-03-11T09:37:21.509Z,5.50
2023-03-11T09:39:53.663Z,5.50
2023-03-11T09:42:43.530Z,5.60
2023-03-11T09:45:31.709Z,5.70
2023-03-11T09:48:18.298Z,5.70
2023-03-11T09:51:19.198Z,5.70
2023-03-11T09:54:11.028Z,5.70
2023-03-11T09:56:44.720Z,5.80
2023-03-11T09:59:30.335Z,5.80
2023-03-11T10:02:05.878Z,5.90
2023-03-11T10:04:48.875Z,5.80
2023-03-11T10:07:43.918Z,5.50
2023-03-11T10:10:28.892Z,5.20
2023-03-11T10:13:17.113Z,5.00
2023-03-11T10:16:26.263Z,5.00
2023-03-11T10:19:44.556Z,5.20
2023-03-11T10:23:14.087Z,5.30
2023-03-11T10:26:28.764Z,5.10
2023-03-11T10:29:34.482Z,4.90
2023-03-11T10:32:46.602Z,4.70
2023-03-11T10:35:29.191Z,4.50
2023-03-11T10:38:31.415Z,4.40
2023-03-11T10:41:29.070Z,4.30
2023-03-11T10:44:41.935Z,4.30
2023-03-11T10:47:18.517Z,4.60
2023-03-11T10:49:53.155Z,4.90
2023-03-11T10:52:25.227Z,5.30
2023-03-11T10:55:03.172Z,5.60
2023-03-11T10:57:38.895Z,6.00
2023-03-11T11:00:28.146Z,6.10
2023-03-11T11:03:07.000Z,6.20
2023-03-11T11:06:05.310Z,6.20
2023-03-11T11:08:48.508Z,6.20
2023-03-11T11:11:39.639Z,6.00
2023-03-11T11:14:12.633Z,5.90
2023-03-11T11:16:52.958Z,5.90
2023-03-11T11:19:27.337Z,5.90
2023-03-11T11:22:06.200Z,6.10
2023-03-11T11:24:46.926Z,6.40
2023-03-11T11:27:29.245Z,6.80
2023-03-11T11:30:11.014Z,7.00
2023-03-11T11:32:48.445Z,7.30
2023-03-11T11:35:25.257Z,7.50
2023-03-11T11:38:02.410Z,7.50
2023-03-11T11:40:36.273Z,7.40
2023-03-11T11:43:27.078Z,7.10
2023-03-11T11:46:33.473Z,7.00
2023-03-11T11:49:22.798Z,7.00
2023-03-11T11:52:17.875Z,7.20
2023-03-11T11:55:04.016Z,7.10
2023-03-11T11:57:44.004Z,7.00
2023-03-11T12:00:20.788Z,6.90
2023-03-11T12:03:20.456Z,6.90
2023-03-11T12:06:51.214Z,7.10
2023-03-11T12:10:05.051Z,7.00
2023-03-11T12:13:16.724Z,6.90
2023-03-11T12:16:34.839Z,6.80
2023-03-11T12:19:43.220Z,7.00
2023-03-11T12:22:55.389Z,7.50
2023-03-11T12:26:17.900Z,8.00
2023-03-11T12:29:10.426Z,8.30
2023-03-11T12:32:03.266Z,8.50
2023-03-11T12:34:36.724Z,8.80
2023-03-11T12:37:17.107Z,9.00
2023-03-11T12:39:51.772Z,9.20
2023-03-11T12:42:38.199Z,9.20
2023-03-11T12:45:47.833Z,9.20
2023-03-11T12:48:35.646Z,9.20
2023-03-11T12:51:27.579Z,9.40
2023-03-11T12:54:30.738Z,9.50
2023-03-11T12:57:19.168Z,9.60
2023-03-11T13:00:25.909Z,9.80
2023-03-11T13:03:50.181Z,9.90
2023-03-11T13:06:58.747Z,9.90
2023-03-11T13:09:44.952Z,10.10
2023-03-11T13:12:50.393Z,10.20
2023-03-11T13:15:23.235Z,10.30
2023-03-11T13:18:18.782Z,10.30
2023-03-11T13:21:31.922Z,10.30
2023-03-11T13:24:18.920Z,10.60
2023-03-11T13:27:27.785Z,10.70
2023-03-11T13:30:24.965Z,10.70
2023-03-11T13:33:18.702Z,10.80
2023-03-11T13:36:15.051Z,10.90
2023-03-11T13:39:34.702Z,10.90
2023-03-11T13:42:22.694Z,10.80
2023-03-11T13:45:12.888Z,10.90
2023-03-11T13:48:14.165Z,11.00
2023-03-11T13:51:13.918Z,11.10
2023-03-11T13:54:20.088Z,11.10
2023-03-11T13:57:25.108Z,11.10
2023-03-11T14:00:17.660Z,11.00
2023-03-11T14:02:59.286Z,11.10
2023-03-11T14:05:36.367Z,11.20
2023-03-11T14:08:23.810Z,11.00
2023-03-11T14:11:11.777Z,10.80
2023-03-11T14:13:51.234Z,10.80
2023-03-11T14:16:36.248Z,10.70
2023-03-11T14:19:16.810Z,10.70
2023-03-11T14:21:51.861Z,10.70
2023-03-11T14:24:29.897Z,10.60
2023-03-11T14:27:07.146Z,10.40
2023-03-11T14:29:43.381Z,10.40
2023-03-11T14:32:29.577Z,10.20
2023-03-11T14:35:20.461Z,10.10
2023-03-11T14:37:53.864Z,9.90
2023-03-11T14:40:32.143Z,9.70
2023-03-11T14:43:08.543Z,9.50
2023-03-11T14:45:43.989Z,9.30
2023-03-11T14:48:31.115Z,9.10
2023-03-11T14:51:18.420Z,8.80
2023-03-11T14:54:07.856Z,8.60
2023-03-11T14:57:11.636Z,8.70
2023-03-11T14:59:54.396Z,8.70
2023-03-11T15:03:12.577Z,8.70
2023-03-11T15:06:18.218Z,8.60
2023-03-11T15:09:00.746Z,8.50
2023-03-11T15:11:57.725Z,8.40
2023-03-11T15:14:35.424Z,8.40
2023-03-11T15:17:42.929Z,8.30
2023-03-11T15:20:31.203Z,8.10
2023-03-11T15:23:08.156Z,8.10
2023-03-11T15:25:51.852Z,7.90
2023-03-11T15:28:29.718Z,7.80
2023-03-11T15:31:17.038Z,7.70
2023-03-11T15:34:18.784Z,7.60
2023-03-11T15:37:19.309Z,7.50
2023-03-11T15:39:53.227Z,7.40
2023-03-11T15:42:28.879Z,7.40
2023-03-11T15:45:23.782Z,7.30
2023-03-11T15:47:56.221Z,7.20
2023-03-11T15:50:40.109Z,7.10
2023-03-11T15:53:23.663Z,7.10
2023-03-11T15:56:07.367Z,7.00
2023-03-11T15:58:46.423Z,6.90
2023-03-11T16:01:23.147Z,6.90
2023-03-11T16:04:00.582Z,6.70
2023-03-11T16:06:33.549Z,6.70
2023-03-11T16:09:05.816Z,6.60
2023-03-11T16:11:39.283Z,6.50
2023-03-11T16:14:17.515Z,6.50
2023-03-11T16:16:51.268Z,6.40
2023-03-11T16:19:23.366Z,6.40
2023-03-11T16:21:55.608Z,6.30
2023-03-11T16:24:27.918Z,6.20
2023-03-11T16:27:00.250Z,6.20
2023-03-11T16:29:33.521Z,6.20
2023-03-11T16:32:06.159Z,6.20
2023-03-11T16:34:40.655Z,6.10
2023-03-11T16:37:20.737Z,6.10
2023-03-11T16:39:53.745Z,6.00
2023-03-11T16:42:25.926Z,6.00
2023-03-11T16:44:58.089Z,5.90
2023-03-11T16:47:30.190Z,5.90
2023-03-11T16:50:02.499Z,5.80
2023-03-11T16:52:36.037Z,5.80
2023-03-11T16:55:09.257Z,5.70
2023-03-11T16:57:41.498Z,5.70
2023-03-11T17:00:14.912Z,5.60
2023-03-11T17:02:49.384Z,5.60
2023-03-11T17:05:22.198Z,5.50
2023-03-11T17:08:00.105Z,5.50
2023-03-11T17:10:44.148Z,5.40
2023-03-11T17:13:19.057Z,5.40
2023-03-11T17:16:01.887Z,5.40
2023-03-11T17:18:34.527Z,5.40
2023-03-11T17:21:08.924Z,5.30
2023-03-11T17:23:43.927Z,5.20
2023-03-11T17:26:17.703Z,5.20
2023-03-11T17:28:49.997Z,5.20
2023-03-11T17:31:24.584Z,5.10
2023-03-11T17:33:59.317Z,5.00
2023-03-11T17:36:31.808Z,5.00
2023-03-11T17:39:06.904Z,4.90
2023-03-11T17:41:39.445Z,4.80
2023-03-11T17:44:12.917Z,4.70
2023-03-11T17:46:45.852Z,4.70
2023-03-11T17:49:18.765Z,4.60
2023-03-11T17:51:51.017Z,4.50
2023-03-11T17:54:23.506Z,4.40
2023-03-11T17:56:56.463Z,4.30
2023-03-11T17:59:29.423Z,4.30
2023-03-11T18:02:02.471Z,4.30
2023-03-11T18:04:34.696Z,4.10
2023-03-11T18:07:08.629Z,4.10
2023-03-11T18:09:41.030Z,4.00
2023-03-11T18:12:13.924Z,4.00
2023-03-11T18:14:46.737Z,4.00
2023-03-11T18:17:19.793Z,3.90
2023-03-11T18:19:52.479Z,3.90
2023-03-11T18:22:25.154Z,3.90
2023-03-11T18:24:57.925Z,3.90
2023-03-11T18:27:30.484Z,3.90
2023-03-11T18:30:03.818Z,3.90
2023-03-11T18:32:37.529Z,3.90
2023-03-11T18:35:10.468Z,3.90
2023-03-11T18:37:45.711Z,3.90
2023-03-11T18:40:18.180Z,3.80
2023-03-11T18:42:52.766Z,3.80
2023-03-11T18:45:25.013Z,3.80
2023-03-11T18:47:57.171Z,3.70
2023-03-11T18:50:29.687Z,3.70
2023-03-11T18:53:02.059Z,3.60
2023-03-11T18:55:35.596Z,3.60
2023-03-11T18:58:09.659Z,3.50
2023-03-11T19:00:42.137Z,3.40
2023-03-11T19:03:14.538Z,3.40
2023-03-11T19:05:50.866Z,3.30
2023-03-11T19:08:23.588Z,3.30
2023-03-11T19:10:58.866Z,3.20
2023-03-11T19:13:45.617Z,3.10
2023-03-11T19:16:22.487Z,3.10
2023-03-11T19:18:56.250Z,3.00
2023-03-11T19:21:29.571Z,2.90
2023-03-11T19:24:02.256Z,2.80
2023-03-11T19:26:44.891Z,2.80
2023-03-11T19:29:19.501Z,2.70
2023-03-11T19:31:54.844Z,2.70
2023-03-11T19:34:28.919Z,2.50
2023-03-11T19:37:01.229Z,2.50
2023-03-11T19:39:35.078Z,2.40
2023-03-11T19:42:07.859Z,2.30
2023-03-11T19:44:41.118Z,2.20
2023-03-11T19:47:14.374Z,2.20
2023-03-11T19:49:47.893Z,2.10
2023-03-11T19:52:20.981Z,2.00
2023-03-11T19:54:55.342Z,2.00
2023-03-11T19:57:29.216Z,1.90
2023-03-11T20:00:01.937Z,1.80
2023-03-11T20:02:35.830Z,1.70
2023-03-11T20:05:10.915Z,1.60
2023-03-11T20:07:45.963Z,1.60
2023-03-11T20:10:20.758Z,1.50
2023-03-11T20:13:02.126Z,1.40
2023-03-11T20:15:37.599Z,1.40
2023-03-11T20:18:10.519Z,1.40
2023-03-11T20:20:44.682Z,1.30
2023-03-11T20:23:18.543Z,1.20
2023-03-11T20:25:51.925Z,1.20
2023-03-11T20:28:26.269Z,1.10
2023-03-11T20:31:02.597Z,1.10
2023-03-11T20:33:47.690Z,1.00
2023-03-11T20:36:24.799Z,1.00
2023-03-11T20:39:00.286Z,0.90
2023-03-11T20:41:39.090Z,0.90
2023-03-11T20:44:14.101Z,0.90
2023-03-11T20:46:47.006Z,0.80
2023-03-11T20:49:20.898Z,0.80
2023-03-11T20:51:54.084Z,0.80
2023-03-11T20:54:26.981Z,0.70
2023-03-11T20:56:59.959Z,0.70
2023-03-11T20:59:32.991Z,0.60
2023-03-11T21:02:06.638Z,0.60
2023-03-11T21:04:44.337Z,0.60
2023-03-11T21:07:18.175Z,0.50
2023-03-11T21:09:54.956Z,0.50
2023-03-11T21:12:31.339Z,0.50
2023-03-11T21:15:05.213Z,0.50
2023-03-11T21:17:39.226Z,0.40
2023-03-11T21:20:12.317Z,0.40
2023-03-11T21:22:46.682Z,0.30
2023-03-11T21:25:19.294Z,0.30
2023-03-11T21:27:52.580Z,0.20
2023-03-11T21:30:25.519Z,0.20
2023-03-11T21:32:58.236Z,0.20
2023-03-11T21:35:31.524Z,0.10
2023-03-11T21:38:05.118Z,0.10
2023-03-11T21:40:38.080Z,0.10
2023-03-11T21:43:13.713Z,0.00
2023-03-11T21:45:47.335Z,0.00
2023-03-11T21:48:20.470Z,0.00
2023-03-11T21:50:53.696Z,0.00
2023-03-11T21:53:26.929Z,0.00
2023-03-11T21:56:01.657Z,-0.10
2023-03-11T21:58:35.729Z,-0.10
2023-03-11T22:01:09.682Z,-0.10
2023-03-11T22:03:42.652Z,-0.20
2023-03-11T22:06:15.632Z,-0.10
2023-03-11T22:08:47.886Z,-0.20
2023-03-11T22:11:28.193Z,-0.20
2023-03-11T22:14:01.163Z,-0.20
2023-03-11T22:16:33.755Z,-0.20
2023-03-11T22:19:08.924Z,-0.30
2023-03-11T22:21:42.850Z,-0.30
2023-03-11T22:24:15.339Z,-0.30
2023-03-11T22:26:47.602Z,-0.40
2023-03-11T22:29:19.833Z,-0.40
2023-03-11T22:31:52.118Z,-0.40
2023-03-11T22:34:24.442Z,-0.40
2023-03-11T22:36:56.741Z,-0.40
2023-03-11T22:39:28.955Z,-0.50
2023-03-11T22:42:02.431Z,-0.50
2023-03-11T22:44:35.169Z,-0.50
2023-03-11T22:47:07.490Z,-0.50
2023-03-11T22:49:39.619Z,-0.50
2023-03-11T22:52:11.833Z,-0.50
2023-03-11T22:54:44.427Z,-0.60
2023-03-11T22:57:16.501Z,-0.60
2023-03-11T22:59:48.835Z,-0.60
2023-03-11T23:02:20.947Z,-0.60
2023-03-11T23:04:53.282Z,-0.70
2023-03-11T23:07:25.312Z,-0.70
2023-03-11T23:09:57.359Z,-0.70
2023-03-11T23:12:29.436Z,-0.70
2023-03-11T23:15:07.063Z,-0.80
2023-03-11T23:17:43.402Z,-0.80
2023-03-11T23:20:16.365Z,-0.80
2023-03-11T23:22:48.627Z,-0.80
2023-03-11T23:25:20.882Z,-0.80
2023-03-11T23:27:53.150Z,-0.90
2023-03-11T23:30:25.466Z,-0.90
2023-03-11T23:32:58.084Z,-0.90
2023-03-11T23:35:31.822Z,-0.90
2023-03-11T23:38:04.146Z,-1.00
2023-03-11T23:40:36.308Z,-1.00
2023-03-11T23:43:11.060Z,-1.00
2023-03-11T23:45:43.107Z,-1.00
2023-03-11T23:48:15.788Z,-1.00
2023-03-11T23:50:50.032Z,-1.00
2023-03-11T23:53:23.280Z,-1.00
2023-03-11T23:55:56.480Z,-1.10
2023-03-11T23:58:29.764Z,-1.10
